Terminal Aerodrome Forecast
Issued by NWS Atlanta, GA

Home | Current Version | Previous Version | Text Only | Print | Product List | Glossary On
Versions: 1 2 3 4 5 6 7 8 9 10 11 12 13 14 15 16 17 18 19 20 21 22 23 24 25 26 27 28 29 30 31 32 33 34
000
FTUS42 KFFC 231401 AAB
TAFAHN
TAF AMD
KAHN 231401Z 2314/2412 07010KT 4SM -RA BR OVC003
      TEMPO 2314/2316 2SM -RA BR
     FM231800 08012G19KT 5SM -SHRA BR OVC007
     FM240000 11009KT 6SM BR VCSH OVC008
     FM240400 18009KT 4SM BR OVC006=

USA.gov is the U.S. government's official web portal to all federal, state and local government web resources and services.